createdAt,value
2023-03-31T00:07:40.554Z,1.60
2023-03-31T00:22:46.703Z,1.47
2023-03-31T00:37:49.238Z,1.57
2023-03-31T00:52:58.385Z,2.07
2023-03-31T01:08:02.287Z,1.97
2023-03-31T01:23:16.935Z,2.00
2023-03-31T01:38:41.124Z,2.10
2023-03-31T01:54:05.911Z,2.27
2023-03-31T02:09:22.156Z,2.63
2023-03-31T02:24:27.498Z,2.40
2023-03-31T02:39:34.761Z,1.70
2023-03-31T02:55:28.037Z,1.57
2023-03-31T03:11:12.751Z,1.60
2023-03-31T03:26:16.154Z,1.00
2023-03-31T03:41:18.611Z,1.17
2023-03-31T03:56:21.995Z,1.50
2023-03-31T04:11:24.465Z,1.07
2023-03-31T04:26:38.822Z,1.23
2023-03-31T04:41:41.246Z,1.30
2023-03-31T04:56:43.800Z,1.00
2023-03-31T05:11:46.724Z,0.90
2023-03-31T05:26:52.673Z,0.80
2023-03-31T05:41:55.319Z,0.60
2023-03-31T05:56:57.735Z,0.60
2023-03-31T06:12:00.181Z,1.00
2023-03-31T06:27:07.130Z,0.70
2023-03-31T06:42:09.456Z,1.07
2023-03-31T06:57:16.396Z,1.20
2023-03-31T07:12:39.340Z,1.20
2023-03-31T07:27:42.688Z,1.50
2023-03-31T07:42:49.124Z,1.67
2023-03-31T07:57:53.832Z,1.60
2023-03-31T08:12:56.742Z,2.13
2023-03-31T08:27:59.091Z,1.70
2023-03-31T08:43:22.932Z,2.03
2023-03-31T08:58:46.146Z,2.20
2023-03-31T09:14:04.290Z,2.00
2023-03-31T09:29:15.569Z,2.47
2023-03-31T09:44:42.648Z,2.30
2023-03-31T09:59:51.533Z,2.07
2023-03-31T10:15:01.834Z,1.87
2023-03-31T10:30:09.375Z,1.83
2023-03-31T10:45:34.026Z,1.20
2023-03-31T11:01:16.995Z,1.70
2023-03-31T11:16:30.776Z,2.40
2023-03-31T11:31:52.612Z,2.10
2023-03-31T11:47:00.051Z,2.10
2023-03-31T12:02:19.803Z,3.00
2023-03-31T12:17:27.526Z,2.53
2023-03-31T12:32:37.170Z,1.90
2023-03-31T12:48:07.117Z,1.73
2023-03-31T13:03:45.122Z,1.77
2023-03-31T13:18:52.883Z,1.67
2023-03-31T13:34:01.549Z,1.30
2023-03-31T13:49:06.977Z,1.27
2023-03-31T14:04:15.670Z,1.20
2023-03-31T14:19:32.982Z,1.67
2023-03-31T14:34:55.039Z,1.37
2023-03-31T14:50:14.512Z,2.07
2023-03-31T15:05:29.769Z,2.30
2023-03-31T15:20:40.677Z,1.60
2023-03-31T15:35:44.478Z,1.90
2023-03-31T15:50:47.694Z,1.20
2023-03-31T16:05:56.874Z,2.60
2023-03-31T16:21:03.380Z,0.97
2023-03-31T16:36:08.744Z,1.50
2023-03-31T16:51:11.430Z,1.00
2023-03-31T17:06:13.962Z,1.43
2023-03-31T17:21:19.387Z,0.97
2023-03-31T17:36:22.353Z,1.40
2023-03-31T17:51:24.888Z,0.93
2023-03-31T18:06:27.614Z,0.97
2023-03-31T18:21:52.318Z,1.67
2023-03-31T18:37:36.209Z,1.20
2023-03-31T18:52:41.898Z,2.70
2023-03-31T19:07:44.384Z,0.90
2023-03-31T19:22:49.445Z,1.10
2023-03-31T19:37:55.473Z,1.30
2023-03-31T19:53:01.987Z,1.80
2023-03-31T20:08:04.872Z,1.33
2023-03-31T20:23:08.896Z,1.20
2023-03-31T20:38:11.322Z,1.40
2023-03-31T20:53:16.586Z,1.83
2023-03-31T21:08:19.352Z,1.50
2023-03-31T21:23:24.216Z,1.33
2023-03-31T21:38:30.593Z,1.30
2023-03-31T21:53:33.161Z,1.30
2023-03-31T22:08:37.822Z,1.00
2023-03-31T22:23:40.230Z,1.00
2023-03-31T22:38:43.837Z,0.90
2023-03-31T22:53:50.989Z,0.77
2023-03-31T23:08:53.837Z,0.90
2023-03-31T23:23:58.507Z,0.60
2023-03-31T23:39:00.829Z,0.73
2023-03-31T23:54:03.426Z,0.73
